Time;durP1;ratioP1;P1;durP2;ratioP2;P2;SDS_P1;SDS_P2;PMS_P1;PMS_P2;Temp;Humidity;BMP_temperature;BMP_pressure;BME280_temperature;BME280_humidity;BME280_pressure;Samples;Min_cycle;Max_cycle;Signal;HPM_P1;HPM_P2
2021/04/21 00:00:17;;;;;;;6.68;4.68;;;8.10;99.90;;;;;;5026443;28;20034;-45
2021/04/21 00:02:45;;;;;;;9.82;4.47;;;8.00;99.10;;;;;;5027884;28;20030;-45
2021/04/21 00:05:13;;;;;;;7.55;5.10;;;8.00;99.90;;;;;;5027836;28;20087;-45
2021/04/21 00:07:40;;;;;;;8.50;5.80;;;8.00;99.90;;;;;;5029369;28;20025;-42
2021/04/21 00:10:08;;;;;;;8.45;4.75;;;7.90;99.90;;;;;;5031418;28;20025;-45
2021/04/21 00:12:35;;;;;;;9.70;5.70;;;7.70;99.90;;;;;;5030202;28;20026;-46
2021/04/21 00:15:00;;;;;;;10.70;5.32;;;7.70;99.90;;;;;;5031535;28;20062;-45
2021/04/21 00:17:27;;;;;;;8.98;5.05;;;7.70;99.90;;;;;;5030663;28;20537;-44
2021/04/21 00:19:54;;;;;;;7.75;4.85;;;7.50;99.90;;;;;;5031252;28;20064;-47
2021/04/21 00:22:23;;;;;;;9.15;4.75;;;7.50;99.90;;;;;;5031483;28;20487;-43
2021/04/21 00:24:51;;;;;;;12.90;5.45;;;7.50;99.90;;;;;;5029837;28;20025;-43
2021/04/21 00:27:24;;;;;;;12.02;5.50;;;7.50;99.90;;;;;;5031015;28;20029;-43
2021/04/21 00:29:53;;;;;;;9.57;5.40;;;7.50;99.90;;;;;;5030767;28;20113;-45
2021/04/21 00:32:21;;;;;;;10.82;4.97;;;7.50;99.90;;;;;;5031006;28;20021;-44
2021/04/21 00:34:48;;;;;;;11.45;5.82;;;7.50;99.90;;;;;;5030002;28;20029;-46
2021/04/21 00:37:15;;;;;;;7.90;4.78;;;7.50;99.90;;;;;;5029539;28;20124;-47
2021/04/21 00:39:42;;;;;;;6.65;4.63;;;7.50;99.90;;;;;;5030480;28;20026;-45
2021/04/21 00:42:26;;;;;;;16.15;5.90;;;7.40;99.90;;;;;;5030829;28;20136;-44
2021/04/21 00:45:01;;;;;;;8.23;5.13;;;7.30;99.90;;;;;;5029907;28;20029;-45
2021/04/21 00:47:50;;;;;;;9.52;4.95;;;7.30;99.90;;;;;;5029913;28;20294;-44
2021/04/21 00:50:25;;;;;;;10.90;4.80;;;7.20;99.90;;;;;;5030487;28;20558;-44
2021/04/21 00:52:57;;;;;;;17.63;6.45;;;7.10;99.90;;;;;;5030438;28;20028;-46
2021/04/21 00:55:33;;;;;;;11.73;5.95;;;7.00;99.90;;;;;;5030719;28;20091;-45
2021/04/21 00:58:26;;;;;;;10.07;6.05;;;7.00;99.90;;;;;;5028374;28;20124;-45
2021/04/21 01:00:55;;;;;;;11.20;5.68;;;6.90;99.90;;;;;;5030465;28;20022;-45
2021/04/21 01:03:23;;;;;;;10.50;7.78;;;6.90;99.90;;;;;;5030400;28;20091;-44
2021/04/21 01:05:55;;;;;;;9.35;5.75;;;6.80;99.90;;;;;;5028780;28;20061;-45
2021/04/21 01:08:29;;;;;;;9.93;5.55;;;6.80;99.90;;;;;;5029822;28;20022;-44
2021/04/21 01:11:06;;;;;;;9.93;5.32;;;6.80;99.90;;;;;;5030374;28;20152;-45
2021/04/21 01:13:38;;;;;;;10.10;6.00;;;6.70;99.90;;;;;;5030608;28;20103;-47
2021/04/21 01:16:06;;;;;;;8.90;4.80;;;6.70;99.90;;;;;;5029996;28;20033;-44
2021/04/21 01:18:34;;;;;;;8.27;4.97;;;6.60;99.90;;;;;;5029180;28;20382;-45
2021/04/21 01:21:13;;;;;;;6.90;4.65;;;6.60;99.90;;;;;;5030461;28;20053;-44
2021/04/21 01:24:05;;;;;;;16.13;5.25;;;6.50;99.90;;;;;;5030354;28;20033;-45
2021/04/21 01:26:49;;;;;;;8.52;4.72;;;6.50;99.90;;;;;;5028022;28;20026;-46
2021/04/21 01:29:41;;;;;;;10.43;5.03;;;6.50;99.90;;;;;;5027875;28;20529;-45
2021/04/21 01:32:24;;;;;;;7.82;4.70;;;6.40;99.90;;;;;;5027540;28;20026;-44
2021/04/21 01:34:53;;;;;;;11.35;5.22;;;6.30;99.90;;;;;;5026721;28;20025;-43
2021/04/21 01:37:23;;;;;;;9.35;5.13;;;6.30;99.90;;;;;;5028097;28;20446;-47
2021/04/21 01:39:57;;;;;;;9.55;4.50;;;6.30;99.90;;;;;;5028647;28;20030;-45
2021/04/21 01:42:28;;;;;;;7.25;4.38;;;6.20;99.90;;;;;;5025711;28;20025;-45
2021/04/21 01:44:56;;;;;;;11.65;5.50;;;6.20;99.90;;;;;;5007615;28;20060;-44
2021/04/21 01:47:22;;;;;;;10.23;4.88;;;6.20;99.90;;;;;;5009319;28;20472;-45
2021/04/21 01:49:51;;;;;;;12.43;6.25;;;6.10;99.90;;;;;;5009362;28;20125;-44
2021/04/21 01:52:35;;;;;;;8.50;4.95;;;6.10;99.90;;;;;;5009644;28;20026;-44
2021/04/21 01:55:20;;;;;;;8.85;5.35;;;6.10;99.90;;;;;;5009757;28;20084;-44
2021/04/21 01:58:11;;;;;;;14.10;5.90;;;6.10;99.90;;;;;;5009116;28;20029;-44
2021/04/21 02:00:48;;;;;;;;;;;6.10;99.90;;;;;;5019543;28;20032;-45
2021/04/21 02:03:29;;;;;;;8.38;5.13;;;6.00;99.90;;;;;;5029395;28;19908;-44
2021/04/21 02:06:18;;;;;;;6.93;4.95;;;6.00;99.90;;;;;;5029304;28;20055;-44
2021/04/21 02:09:12;;;;;;;7.68;4.47;;;6.00;99.90;;;;;;5025626;28;20029;-44
2021/04/21 02:11:47;;;;;;;7.28;4.53;;;5.90;99.90;;;;;;5027646;28;20033;-43
2021/04/21 02:14:27;;;;;;;9.32;5.60;;;5.80;99.90;;;;;;5025100;28;20026;-44
2021/04/21 02:17:30;;;;;;;11.45;4.70;;;5.70;99.90;;;;;;5022512;28;20237;-44
2021/04/21 02:20:20;;;;;;;8.00;4.70;;;5.70;99.90;;;;;;5026886;28;20026;-44
2021/04/21 02:22:59;;;;;;;8.33;4.90;;;5.70;99.90;;;;;;5027253;28;20104;-44
2021/04/21 02:25:44;;;;;;;8.60;5.72;;;5.70;99.90;;;;;;5027311;28;20014;-45
2021/04/21 02:28:20;;;;;;;8.23;5.10;;;5.70;99.90;;;;;;5026859;28;20059;-45
2021/04/21 02:30:52;;;;;;;7.50;4.55;;;5.60;99.90;;;;;;5024963;28;20021;-44
2021/04/21 02:33:21;;;;;;;11.93;4.78;;;5.60;99.90;;;;;;5025446;28;20116;-44
2021/04/21 02:35:57;;;;;;;8.02;4.43;;;5.60;99.90;;;;;;5028428;28;20029;-47
2021/04/21 02:38:40;;;;;;;7.20;4.80;;;5.50;99.90;;;;;;5026520;28;20383;-45
2021/04/21 02:41:12;;;;;;;9.02;5.38;;;5.50;99.90;;;;;;5024442;28;20479;-45
2021/04/21 02:44:03;;;;;;;5.55;4.00;;;5.50;99.90;;;;;;5026528;28;20040;-46
2021/04/21 02:46:56;;;;;;;8.57;4.70;;;5.50;99.90;;;;;;5025069;28;20478;-44
2021/04/21 02:49:43;;;;;;;8.32;4.28;;;5.50;99.90;;;;;;5026083;28;20029;-44
2021/04/21 02:52:35;;;;;;;10.10;4.80;;;5.40;99.90;;;;;;5025549;28;20033;-44
2021/04/21 02:55:25;;;;;;;7.78;4.97;;;5.40;99.90;;;;;;5027349;28;20018;-45
2021/04/21 02:58:03;;;;;;;7.68;4.65;;;5.40;99.90;;;;;;5025130;28;20435;-45
2021/04/21 03:00:43;;;;;;;7.30;4.60;;;5.40;99.90;;;;;;5025812;28;20033;-44
2021/04/21 03:03:46;;;;;;;12.95;5.75;;;5.30;99.90;;;;;;5024496;28;20125;-44
2021/04/21 03:06:21;;;;;;;11.95;4.70;;;5.30;99.90;;;;;;5025135;28;20471;-44
2021/04/21 03:09:00;;;;;;;8.15;4.60;;;5.30;99.90;;;;;;5025209;28;20176;-45
2021/04/21 03:11:28;;;;;;;7.05;4.82;;;5.20;99.90;;;;;;5026089;28;20040;-44
2021/04/21 03:14:03;;;;;;;8.45;4.45;;;5.30;99.90;;;;;;5022258;28;20028;-44
2021/04/21 03:16:33;;;;;;;7.38;4.40;;;5.20;99.90;;;;;;5008824;28;20041;-45
2021/04/21 03:19:04;;;;;;;6.88;4.40;;;5.20;99.90;;;;;;5008106;28;20022;-44
2021/04/21 03:21:32;;;;;;;9.10;5.25;;;5.20;99.90;;;;;;5008530;28;20037;-43
2021/04/21 03:24:06;;;;;;;8.10;4.75;;;5.20;99.90;;;;;;5008486;28;20022;-43
2021/04/21 03:26:34;;;;;;;13.85;6.22;;;5.10;99.90;;;;;;5008420;28;20026;-45
2021/04/21 03:29:01;;;;;;;8.35;4.78;;;5.10;99.90;;;;;;5007931;28;20444;-44
2021/04/21 03:31:31;;;;;;;7.65;5.15;;;5.10;99.90;;;;;;5008500;28;20028;-45
2021/04/21 03:33:59;;;;;;;7.28;4.85;;;5.10;99.90;;;;;;5008039;28;20387;-46
2021/04/21 03:36:25;;;;;;;9.80;5.78;;;5.10;99.90;;;;;;5008380;28;20105;-43
2021/04/21 03:38:51;;;;;;;8.98;4.97;;;5.00;99.90;;;;;;5008058;28;20105;-44
2021/04/21 03:41:17;;;;;;;7.00;4.15;;;5.00;99.90;;;;;;5009786;28;20072;-43
2021/04/21 03:43:43;;;;;;;7.70;4.75;;;5.00;99.90;;;;;;5015791;28;20026;-44
2021/04/21 03:46:12;;;;;;;8.32;4.72;;;4.90;99.90;;;;;;5032168;28;20438;-44
2021/04/21 03:48:40;;;;;;;9.25;5.03;;;4.90;99.90;;;;;;5029380;28;20057;-43
2021/04/21 03:51:06;;;;;;;13.13;5.72;;;4.90;99.90;;;;;;5030347;28;20406;-46
2021/04/21 03:53:36;;;;;;;8.25;4.47;;;4.80;99.90;;;;;;5031642;28;20025;-44
2021/04/21 03:56:04;;;;;;;6.95;4.80;;;4.80;99.90;;;;;;5031595;28;20045;-42
2021/04/21 03:58:31;;;;;;;6.93;4.30;;;4.80;99.90;;;;;;5031047;28;20451;-44
2021/04/21 04:01:01;;;;;;;9.85;4.85;;;4.80;99.90;;;;;;5031057;28;20021;-44
2021/04/21 04:03:28;;;;;;;8.75;4.57;;;4.80;99.90;;;;;;5030771;28;20035;-43
2021/04/21 04:05:57;;;;;;;8.85;4.95;;;4.80;99.90;;;;;;5031121;28;20060;-43
2021/04/21 04:08:26;;;;;;;11.45;5.07;;;4.80;99.90;;;;;;5030431;28;20026;-44
2021/04/21 04:10:55;;;;;;;8.90;4.93;;;4.70;99.90;;;;;;5031319;28;20579;-44
2021/04/21 04:13:24;;;;;;;7.80;4.30;;;4.70;99.90;;;;;;5031221;28;20356;-43
2021/04/21 04:15:52;;;;;;;12.20;6.18;;;4.70;99.90;;;;;;5031144;28;20076;-43
2021/04/21 04:18:21;;;;;;;11.95;5.53;;;4.70;99.90;;;;;;5029043;28;20654;-43
2021/04/21 04:20:50;;;;;;;10.05;5.63;;;4.70;99.90;;;;;;5030002;28;20033;-43
2021/04/21 04:23:18;;;;;;;11.88;5.43;;;4.70;99.90;;;;;;5031197;28;20072;-44
2021/04/21 04:25:50;;;;;;;7.93;4.32;;;4.70;99.90;;;;;;5031211;28;20100;-45
2021/04/21 04:28:17;;;;;;;9.60;4.97;;;4.80;99.90;;;;;;5030575;28;20075;-44
2021/04/21 04:30:44;;;;;;;7.82;5.15;;;4.80;99.90;;;;;;5031585;28;20043;-47
2021/04/21 04:33:10;;;;;;;9.63;5.53;;;4.70;99.90;;;;;;5031413;28;20049;-44
2021/04/21 04:35:37;;;;;;;9.63;5.18;;;4.80;99.90;;;;;;5031615;28;20051;-45
2021/04/21 04:38:04;;;;;;;14.18;5.15;;;4.80;99.90;;;;;;5049137;28;20056;-45
2021/04/21 04:40:31;;;;;;;10.60;4.90;;;4.70;99.90;;;;;;5041541;28;20040;-44
2021/04/21 04:42:57;;;;;;;11.57;5.10;;;4.70;99.90;;;;;;5030381;28;20483;-45
2021/04/21 04:45:27;;;;;;;11.27;4.82;;;4.70;99.90;;;;;;5029369;28;20043;-47
2021/04/21 04:47:57;;;;;;;9.60;5.88;;;4.70;99.90;;;;;;5027955;28;20029;-44
2021/04/21 04:50:25;;;;;;;10.52;5.18;;;4.70;99.90;;;;;;5027187;28;20232;-43
2021/04/21 04:52:54;;;;;;;10.05;5.50;;;4.80;99.90;;;;;;5029045;28;20022;-46
2021/04/21 04:55:23;;;;;;;12.05;5.65;;;4.80;99.90;;;;;;5030052;28;20029;-44
2021/04/21 04:57:50;;;;;;;12.02;5.50;;;4.90;99.90;;;;;;5024832;28;20029;-45
2021/04/21 05:00:19;;;;;;;12.32;6.70;;;4.90;99.90;;;;;;5009232;28;20403;-46
2021/04/21 05:02:58;;;;;;;10.02;5.70;;;4.90;99.90;;;;;;5009152;28;20321;-44
2021/04/21 05:05:24;;;;;;;10.52;5.35;;;5.00;99.90;;;;;;5024094;28;20017;-45
2021/04/21 05:07:53;;;;;;;12.45;6.45;;;5.10;99.90;;;;;;5024746;28;20360;-44
2021/04/21 05:10:27;;;;;;;8.80;5.20;;;5.10;99.90;;;;;;5025757;28;20032;-44
2021/04/21 05:12:56;;;;;;;9.65;4.88;;;5.10;99.90;;;;;;5027341;28;20025;-45
2021/04/21 05:15:39;;;;;;;8.70;4.72;;;5.10;99.90;;;;;;5022666;28;20087;-44
2021/04/21 05:18:23;;;;;;;9.13;5.32;;;5.20;99.90;;;;;;5008128;28;20477;-44
2021/04/21 05:21:21;;;;;;;10.20;4.75;;;5.20;99.90;;;;;;5028440;28;20021;-44
2021/04/21 05:24:17;;;;;;;11.40;4.88;;;5.30;99.90;;;;;;5027700;28;20042;-44
2021/04/21 05:27:09;;;;;;;16.02;5.35;;;5.30;99.90;;;;;;5028736;28;20060;-47
2021/04/21 05:30:21;;;;;;;12.15;5.25;;;5.40;99.90;;;;;;5024270;28;20163;-44
2021/04/21 05:33:43;;;;;;;13.23;6.10;;;5.50;99.90;;;;;;5001577;28;20036;-44
2021/04/21 05:36:44;;;;;;;7.18;4.38;;;5.60;99.90;;;;;;4929977;29;20521;-45
2021/04/21 05:39:28;;;;;;;11.00;5.43;;;5.70;99.90;;;;;;4964881;28;20027;-45
2021/04/21 05:42:13;;;;;;;10.13;4.80;;;5.90;99.90;;;;;;5016196;28;20060;-46
2021/04/21 05:45:07;;;;;;;9.30;4.97;;;6.00;99.90;;;;;;5025344;28;20028;-45
2021/04/21 05:47:50;;;;;;;9.43;4.85;;;6.20;99.90;;;;;;5026730;28;20384;-46
2021/04/21 05:50:37;;;;;;;8.18;4.28;;;6.40;99.90;;;;;;5027785;28;20029;-46
2021/04/21 05:53:36;;;;;;;7.50;4.00;;;6.50;99.90;;;;;;5027456;28;20057;-45
2021/04/21 05:56:20;;;;;;;7.95;4.88;;;6.70;99.90;;;;;;5025520;28;20033;-46
2021/04/21 05:59:23;;;;;;;10.88;5.20;;;6.80;99.90;;;;;;5023788;28;20120;-46
2021/04/21 06:01:49;;;;;;;12.73;5.32;;;7.00;99.90;;;;;;5024584;28;20028;-46
2021/04/21 06:04:15;;;;;;;8.82;4.45;;;7.10;99.90;;;;;;5026496;28;20487;-46
2021/04/21 06:06:41;;;;;;;9.50;5.13;;;7.10;99.90;;;;;;5027009;28;20069;-49
2021/04/21 06:09:11;;;;;;;15.65;5.70;;;7.20;99.90;;;;;;5026094;28;20557;-46
2021/04/21 06:11:37;;;;;;;9.85;5.32;;;7.30;99.90;;;;;;5027169;28;20391;-45
2021/04/21 06:14:05;;;;;;;8.65;4.45;;;7.30;99.90;;;;;;5026050;28;20514;-46
2021/04/21 06:16:32;;;;;;;9.23;5.03;;;7.40;99.90;;;;;;5025692;28;20034;-45
2021/04/21 06:19:00;;;;;;;11.95;4.90;;;7.50;99.90;;;;;;5025261;28;20029;-45
2021/04/21 06:21:29;;;;;;;11.77;5.03;;;7.60;99.90;;;;;;5024426;28;20025;-46
2021/04/21 06:23:56;;;;;;;11.75;5.95;;;7.70;99.90;;;;;;5026679;28;20104;-48
2021/04/21 06:26:27;;;;;;;8.25;4.70;;;7.80;99.90;;;;;;5027297;28;20083;-46
2021/04/21 06:29:07;;;;;;;16.50;5.90;;;7.90;99.90;;;;;;5027256;28;20193;-47
2021/04/21 06:31:44;;;;;;;13.25;5.47;;;8.00;99.90;;;;;;5026845;28;20027;-46
2021/04/21 06:34:12;;;;;;;10.38;4.38;;;8.10;99.90;;;;;;5027468;28;20032;-46
2021/04/21 06:36:42;;;;;;;12.48;4.65;;;8.20;99.90;;;;;;5026819;28;20054;-45
2021/04/21 06:39:09;;;;;;;10.70;4.27;;;8.30;99.50;;;;;;5027582;28;20116;-46
2021/04/21 06:41:36;;;;;;;9.02;4.28;;;8.40;99.40;;;;;;5027314;28;20083;-45
2021/04/21 06:44:02;;;;;;;6.68;4.88;;;8.50;99.90;;;;;;5027042;28;20144;-45
2021/04/21 06:46:27;;;;;;;11.63;4.72;;;8.50;99.10;;;;;;5028108;28;20052;-48
2021/04/21 06:48:56;;;;;;;7.82;4.97;;;8.60;99.20;;;;;;5026120;28;20098;-46
2021/04/21 06:51:24;;;;;;;10.60;4.82;;;8.80;98.60;;;;;;5023135;28;20099;-45
2021/04/21 06:53:52;;;;;;;11.00;5.20;;;8.80;98.90;;;;;;5024560;28;20022;-49
2021/04/21 06:56:24;;;;;;;8.63;5.22;;;8.90;97.50;;;;;;5025998;28;20176;-46
2021/04/21 06:58:50;;;;;;;8.68;5.22;;;9.00;98.00;;;;;;5027328;28;20024;-46
2021/04/21 07:01:24;;;;;;;13.98;6.53;;;9.10;98.20;;;;;;5026678;28;20489;-45
2021/04/21 07:03:49;;;;;;;13.65;5.40;;;9.20;97.40;;;;;;5026336;28;20034;-46
2021/04/21 07:06:15;;;;;;;12.70;5.88;;;9.30;97.80;;;;;;5027391;28;20375;-48
2021/04/21 07:08:40;;;;;;;8.43;5.20;;;9.40;96.90;;;;;;5003411;28;20029;-47
2021/04/21 07:11:08;;;;;;;13.70;5.40;;;9.50;97.30;;;;;;5043156;28;20475;-45
2021/04/21 07:13:47;;;;;;;10.60;5.82;;;9.60;98.10;;;;;;5026685;28;20419;-46
2021/04/21 07:16:18;;;;;;;12.00;5.95;;;9.70;98.40;;;;;;5019254;28;20539;-45
2021/04/21 07:18:53;;;;;;;11.68;6.40;;;9.80;98.10;;;;;;5021562;28;20032;-48
2021/04/21 07:21:20;;;;;;;12.02;6.43;;;9.90;97.00;;;;;;5031689;28;20025;-48
2021/04/21 07:23:51;;;;;;;13.55;6.18;;;10.00;97.70;;;;;;5031418;28;20017;-49
2021/04/21 07:26:17;;;;;;;8.93;6.13;;;10.10;97.20;;;;;;5030886;28;20092;-45
2021/04/21 07:28:43;;;;;;;12.35;6.70;;;10.30;96.70;;;;;;5030515;28;20116;-46
2021/04/21 07:31:15;;;;;;;12.35;6.95;;;10.40;95.60;;;;;;5031788;28;20128;-45
2021/04/21 07:33:45;;;;;;;15.10;8.10;;;10.50;95.00;;;;;;5030959;28;20037;-45
2021/04/21 07:36:20;;;;;;;19.52;8.45;;;10.60;95.20;;;;;;5031443;28;20533;-45
2021/04/21 07:38:48;;;;;;;11.57;7.07;;;10.80;95.50;;;;;;5030377;28;20029;-46
2021/04/21 07:41:29;;;;;;;11.43;6.97;;;10.90;95.50;;;;;;5031503;28;20132;-46
2021/04/21 07:43:55;;;;;;;15.85;7.15;;;11.00;95.20;;;;;;5030798;28;20161;-46
2021/04/21 07:46:22;;;;;;;16.35;7.47;;;11.20;96.50;;;;;;5030175;28;20026;-45
2021/04/21 07:48:49;;;;;;;11.57;7.72;;;11.30;95.50;;;;;;5030031;28;20032;-46
2021/04/21 07:51:15;;;;;;;14.25;7.03;;;11.50;95.50;;;;;;5031234;28;20071;-48
2021/04/21 07:53:46;;;;;;;13.38;7.65;;;11.70;94.90;;;;;;5031076;28;20033;-46
2021/04/21 07:56:12;;;;;;;13.88;7.60;;;11.90;93.30;;;;;;5030904;28;20033;-48
2021/04/21 07:58:37;;;;;;;13.68;7.43;;;12.20;93.50;;;;;;5030353;28;20040;-46
2021/04/21 08:01:03;;;;;;;12.35;7.72;;;12.80;91.90;;;;;;5031065;28;20419;-46
2021/04/21 08:03:28;;;;;;;11.77;7.80;;;13.70;88.30;;;;;;5030919;28;20076;-47
2021/04/21 08:05:54;;;;;;;10.95;7.97;;;15.10;78.40;;;;;;5031035;28;20060;-47
2021/04/21 08:08:54;;;;;;;11.30;7.05;;;16.40;71.60;;;;;;5029047;28;20088;-49
2021/04/21 08:11:22;;;;;;;11.40;7.65;;;18.30;59.50;;;;;;5030822;28;20067;-49
2021/04/21 08:13:50;;;;;;;10.07;6.05;;;19.30;53.40;;;;;;5029726;28;20075;-46
2021/04/21 08:16:26;;;;;;;13.90;6.90;;;20.30;52.30;;;;;;5030567;28;20032;-48
2021/04/21 08:18:54;;;;;;;12.38;7.35;;;21.20;47.10;;;;;;5030175;28;20044;-47
2021/04/21 08:21:43;;;;;;;11.82;6.70;;;22.40;42.50;;;;;;5029469;28;20021;-47
2021/04/21 08:24:14;;;;;;;9.80;6.67;;;23.00;44.20;;;;;;5030887;28;20029;-47
2021/04/21 08:26:44;;;;;;;11.90;6.75;;;22.50;43.30;;;;;;5028777;28;20342;-47
2021/04/21 08:29:14;;;;;;;8.70;5.60;;;23.00;41.60;;;;;;5029102;28;20105;-47
2021/04/21 08:31:45;;;;;;;11.83;6.00;;;24.40;40.80;;;;;;5029115;28;20033;-46
2021/04/21 08:34:12;;;;;;;8.77;5.53;;;25.60;39.20;;;;;;5029522;28;20279;-47
2021/04/21 08:36:37;;;;;;;9.80;5.55;;;26.50;37.80;;;;;;5023048;28;20079;-48
2021/04/21 08:39:05;;;;;;;8.75;5.85;;;26.70;37.60;;;;;;5030270;28;20025;-48
2021/04/21 08:41:34;;;;;;;10.75;5.90;;;26.60;36.90;;;;;;5029966;28;20026;-46
2021/04/21 08:44:00;;;;;;;12.75;6.70;;;27.60;36.70;;;;;;5029714;28;20067;-46
2021/04/21 08:46:26;;;;;;;9.30;7.03;;;27.30;36.00;;;;;;5030320;28;20028;-48
2021/04/21 08:48:52;;;;;;;8.23;6.25;;;27.30;36.40;;;;;;5029220;28;20521;-46
2021/04/21 08:51:20;;;;;;;8.85;5.70;;;27.50;33.80;;;;;;5030463;28;20021;-46
2021/04/21 08:53:50;;;;;;;6.95;5.60;;;28.00;35.40;;;;;;5030288;28;20022;-46
2021/04/21 08:56:19;;;;;;;10.45;6.32;;;28.50;34.40;;;;;;5030116;28;20075;-49
2021/04/21 08:58:46;;;;;;;10.05;5.78;;;29.60;32.50;;;;;;5029965;28;20025;-46
2021/04/21 09:01:13;;;;;;;12.02;6.90;;;29.30;32.50;;;;;;5030470;28;20168;-46
2021/04/21 09:03:44;;;;;;;9.57;6.57;;;27.80;33.30;;;;;;5029934;28;20537;-48
2021/04/21 09:06:12;;;;;;;8.40;6.30;;;27.90;33.20;;;;;;5028923;28;20029;-45
2021/04/21 09:08:39;;;;;;;8.52;6.28;;;28.60;31.90;;;;;;5029508;28;20075;-47
2021/04/21 09:11:05;;;;;;;10.30;6.30;;;27.50;33.90;;;;;;5030000;28;20026;-46
2021/04/21 09:13:31;;;;;;;7.75;6.07;;;27.60;34.50;;;;;;5029540;28;20044;-47
2021/04/21 09:15:57;;;;;;;10.98;6.85;;;27.90;33.40;;;;;;5028018;28;20037;-46
2021/04/21 09:18:25;;;;;;;7.28;5.05;;;28.10;34.20;;;;;;5029182;28;20026;-47
2021/04/21 09:20:50;;;;;;;8.45;6.65;;;28.60;32.90;;;;;;5029756;28;20032;-48
2021/04/21 09:23:16;;;;;;;6.78;5.85;;;28.90;32.60;;;;;;5030006;28;20029;-47
2021/04/21 09:25:42;;;;;;;10.40;6.70;;;28.70;31.80;;;;;;5029117;28;20117;-46
2021/04/21 09:28:08;;;;;;;11.00;5.47;;;29.20;30.20;;;;;;5029135;28;20562;-50
2021/04/21 09:30:36;;;;;;;6.97;4.88;;;29.40;31.70;;;;;;5029578;28;20036;-47
2021/04/21 09:33:02;;;;;;;7.32;4.43;;;29.00;30.00;;;;;;5029229;28;20028;-46
2021/04/21 09:35:33;;;;;;;5.32;3.95;;;29.20;29.70;;;;;;5029095;28;20125;-47
2021/04/21 09:38:09;;;;;;;5.57;3.83;;;28.70;31.40;;;;;;5029062;28;20029;-48
2021/04/21 09:40:36;;;;;;;6.55;4.57;;;29.30;31.00;;;;;;5029111;28;20025;-47
2021/04/21 09:43:03;;;;;;;5.80;3.70;;;30.30;28.40;;;;;;5029565;28;20036;-48
2021/04/21 09:45:44;;;;;;;8.27;4.43;;;30.40;29.70;;;;;;5028487;28;20026;-49
2021/04/21 09:48:15;;;;;;;8.80;4.40;;;30.30;29.10;;;;;;5028578;28;20053;-47
2021/04/21 09:50:43;;;;;;;8.48;5.30;;;29.90;28.40;;;;;;5029210;28;20033;-47
2021/04/21 09:53:29;;;;;;;5.13;3.85;;;29.10;29.40;;;;;;5029099;28;20589;-49
2021/04/21 09:56:04;;;;;;;5.10;4.43;;;28.80;30.40;;;;;;5028872;28;20136;-49
2021/04/21 09:58:39;;;;;;;5.35;3.45;;;29.00;30.20;;;;;;5028469;28;20086;-47
2021/04/21 10:01:17;;;;;;;9.10;4.25;;;29.50;29.80;;;;;;5028049;28;20506;-47
2021/04/21 10:03:43;;;;;;;6.68;4.22;;;30.10;29.40;;;;;;5028267;28;20128;-48
2021/04/21 10:06:22;;;;;;;8.80;4.03;;;29.80;29.40;;;;;;5027364;28;20108;-46
2021/04/21 10:08:48;;;;;;;5.70;4.20;;;29.10;29.40;;;;;;5027100;28;20025;-47
2021/04/21 10:11:14;;;;;;;6.85;4.20;;;29.70;30.00;;;;;;5027368;28;20199;-49
2021/04/21 10:13:48;;;;;;;7.75;3.40;;;29.40;28.80;;;;;;5027239;28;20025;-48
2021/04/21 10:16:16;;;;;;;6.25;3.33;;;29.80;29.90;;;;;;5027146;28;20029;-48
2021/04/21 10:18:43;;;;;;;5.88;3.90;;;29.20;27.40;;;;;;5026055;28;20394;-49
2021/04/21 10:21:09;;;;;;;4.47;3.22;;;29.60;28.10;;;;;;5028740;28;20033;-47
2021/04/21 10:23:35;;;;;;;6.05;3.63;;;30.30;28.00;;;;;;5028568;28;20026;-49
2021/04/21 10:26:09;;;;;;;5.53;3.38;;;30.40;29.20;;;;;;5028723;28;20506;-49
2021/04/21 10:28:37;;;;;;;6.47;3.50;;;29.90;28.40;;;;;;5026850;28;20022;-53
2021/04/21 10:31:16;;;;;;;4.22;3.10;;;30.50;28.60;;;;;;5028047;28;20061;-55
2021/04/21 10:33:42;;;;;;;6.10;3.38;;;31.10;28.10;;;;;;5027715;28;20107;-53
2021/04/21 10:36:09;;;;;;;7.93;2.80;;;30.80;28.30;;;;;;5028350;28;20029;-53
2021/04/21 10:38:40;;;;;;;8.13;3.90;;;29.80;28.30;;;;;;5026321;28;20457;-53
2021/04/21 10:41:26;;;;;;;7.40;3.95;;;27.90;29.30;;;;;;5026604;28;20493;-54
2021/04/21 10:44:08;;;;;;;6.53;3.42;;;26.70;30.00;;;;;;5028279;28;20168;-54
2021/04/21 10:46:57;;;;;;;6.68;4.10;;;26.70;31.60;;;;;;5026979;28;20149;-54
2021/04/21 10:49:41;;;;;;;7.75;3.72;;;27.20;30.40;;;;;;5025789;28;20013;-53
2021/04/21 10:52:10;;;;;;;8.35;3.78;;;28.60;30.60;;;;;;5025353;28;20053;-49
2021/04/21 10:54:37;;;;;;;11.27;4.40;;;28.70;29.70;;;;;;5025800;28;20108;-49
2021/04/21 10:57:35;;;;;;;11.35;4.30;;;29.40;31.30;;;;;;5027938;28;20622;-49
2021/04/21 11:00:26;;;;;;;7.55;3.17;;;29.20;28.80;;;;;;5026785;28;20026;-47
2021/04/21 11:02:59;;;;;;;6.63;3.63;;;28.90;29.90;;;;;;5026823;28;20091;-47
2021/04/21 11:05:43;;;;;;;7.28;4.15;;;28.30;30.30;;;;;;5022838;28;20026;-46
2021/04/21 11:08:16;;;;;;;6.40;3.85;;;27.60;29.70;;;;;;5006366;28;20025;-46
2021/04/21 11:10:45;;;;;;;7.07;3.53;;;28.00;30.80;;;;;;5007085;28;20061;-47
2021/04/21 11:13:13;;;;;;;7.80;4.20;;;28.40;30.50;;;;;;5007313;28;20483;-47
2021/04/21 11:15:52;;;;;;;5.30;3.25;;;28.00;30.60;;;;;;5019235;28;20061;-49
2021/04/21 11:18:27;;;;;;;5.28;4.00;;;28.40;30.20;;;;;;5026287;28;20111;-46
2021/04/21 11:21:03;;;;;;;6.78;3.47;;;28.20;27.90;;;;;;5026294;28;20017;-46
2021/04/21 11:24:03;;;;;;;7.35;3.78;;;28.00;27.80;;;;;;5026672;28;20372;-46
2021/04/21 11:26:30;;;;;;;3.85;3.10;;;28.60;29.20;;;;;;5026507;28;20034;-49
2021/04/21 11:29:22;;;;;;;7.18;3.30;;;29.20;30.70;;;;;;5025675;28;20043;-46
2021/04/21 11:31:51;;;;;;;4.93;3.25;;;29.10;30.00;;;;;;5025108;28;20418;-45
2021/04/21 11:34:38;;;;;;;4.72;3.95;;;28.10;28.70;;;;;;5026180;28;20096;-47
2021/04/21 11:37:10;;;;;;;6.88;3.88;;;27.60;29.20;;;;;;5007179;28;20046;-49
2021/04/21 11:39:42;;;;;;;8.25;3.70;;;27.90;30.50;;;;;;5013688;28;20060;-46
2021/04/21 11:42:18;;;;;;;7.80;3.60;;;26.70;31.40;;;;;;5026531;28;20064;-47
2021/04/21 11:44:50;;;;;;;7.65;4.65;;;26.40;31.60;;;;;;5026336;28;20083;-46
2021/04/21 11:47:31;;;;;;;8.27;4.13;;;26.40;33.00;;;;;;5026741;28;20487;-46
2021/04/21 11:50:00;;;;;;;5.57;3.58;;;26.20;31.30;;;;;;5022597;28;20033;-52
2021/04/21 11:52:53;;;;;;;7.70;3.85;;;25.50;32.20;;;;;;5021705;28;20142;-52
2021/04/21 11:55:22;;;;;;;10.43;4.78;;;24.30;35.30;;;;;;5016231;28;20084;-52
2021/04/21 11:58:05;;;;;;;7.93;4.82;;;24.60;35.30;;;;;;5025274;28;20563;-52
2021/04/21 12:00:34;;;;;;;9.27;4.47;;;25.10;35.00;;;;;;5027591;28;20029;-53
2021/04/21 12:03:02;;;;;;;6.80;4.57;;;25.90;32.70;;;;;;5029893;28;20254;-52
2021/04/21 12:05:33;;;;;;;7.65;4.20;;;26.10;30.20;;;;;;5030783;28;20790;-53
2021/04/21 12:08:01;;;;;;;9.00;4.03;;;25.90;32.40;;;;;;5030701;28;20017;-52
2021/04/21 12:10:32;;;;;;;9.50;4.47;;;25.90;34.00;;;;;;5031237;28;20021;-54
2021/04/21 12:13:14;;;;;;;8.90;4.03;;;25.50;30.80;;;;;;5029729;28;20441;-53
2021/04/21 12:15:40;;;;;;;9.23;4.15;;;25.30;33.10;;;;;;5030306;28;20037;-53
2021/04/21 12:18:06;;;;;;;8.70;4.40;;;24.90;33.50;;;;;;5026096;28;20415;-52
2021/04/21 12:20:32;;;;;;;8.27;3.85;;;24.60;31.50;;;;;;5010032;28;20030;-52
2021/04/21 12:22:59;;;;;;;6.05;3.90;;;24.20;33.00;;;;;;5018145;28;20164;-54
2021/04/21 12:25:31;;;;;;;9.95;4.50;;;23.90;34.00;;;;;;5030928;28;20033;-54
2021/04/21 12:27:59;;;;;;;7.38;4.40;;;23.80;34.80;;;;;;5010686;28;20026;-52
2021/04/21 12:30:31;;;;;;;12.88;4.78;;;23.70;36.20;;;;;;5009978;28;20408;-53
2021/04/21 12:33:06;;;;;;;11.45;4.65;;;23.30;35.90;;;;;;5009881;28;20025;-52
2021/04/21 12:35:32;;;;;;;11.23;4.15;;;22.50;33.20;;;;;;5023627;28;20499;-52
2021/04/21 12:37:59;;;;;;;6.78;4.07;;;22.60;35.80;;;;;;5029022;28;20061;-53
2021/04/21 12:40:31;;;;;;;6.20;3.83;;;22.30;35.50;;;;;;5030716;28;20556;-52
2021/04/21 12:43:12;;;;;;;5.47;3.97;;;22.50;36.20;;;;;;5030712;28;20120;-54
2021/04/21 12:45:39;;;;;;;13.23;5.85;;;22.60;36.30;;;;;;5030464;28;20021;-53
2021/04/21 12:48:23;;;;;;;8.27;5.03;;;22.30;38.90;;;;;;5030184;28;20096;-52
2021/04/21 12:50:50;;;;;;;10.75;4.25;;;22.50;37.40;;;;;;5030728;28;20022;-53
2021/04/21 12:53:18;;;;;;;13.02;4.63;;;22.50;37.10;;;;;;5031076;28;20422;-55
2021/04/21 12:55:44;;;;;;;9.48;4.45;;;22.80;37.30;;;;;;5030657;28;20059;-54
2021/04/21 12:58:11;;;;;;;10.40;4.70;;;22.80;34.80;;;;;;5030020;28;20037;-52
2021/04/21 13:00:37;;;;;;;7.85;4.07;;;22.50;35.80;;;;;;5029455;28;20079;-53
2021/04/21 13:03:03;;;;;;;7.88;4.10;;;22.40;36.50;;;;;;5030705;28;20033;-52
2021/04/21 13:05:49;;;;;;;6.00;3.55;;;22.30;33.20;;;;;;5030600;28;20025;-52
2021/04/21 13:08:33;;;;;;;7.20;4.25;;;21.70;36.40;;;;;;5030056;28;20060;-52
2021/04/21 13:11:00;;;;;;;10.77;4.85;;;21.70;33.50;;;;;;5030169;28;20037;-52
2021/04/21 13:13:30;;;;;;;9.85;4.93;;;21.70;35.20;;;;;;5030366;28;20033;-52
2021/04/21 13:15:57;;;;;;;6.40;4.95;;;21.90;37.20;;;;;;5029865;28;20527;-52
2021/04/21 13:18:31;;;;;;;9.20;5.60;;;22.00;37.20;;;;;;5036033;28;20241;-52